Colton, California
Current Conditions -  °F | °C
As of 8:48 PM on Friday 24 Oct 2014 (Local Time) from KSBD Reporting Station
Clear Clear  
Wind Chill: 73°   Ceiling: Unl
Heat Index: 73°   Visibility: 10mi
Dew Point: 34°   Wind: 5mph
Humidity: 23%   Direction: 100°E
Pressure: 30.01"   Gusts: NA
Location:  34.07°N, 117.32°W
Report Text: KSBD 250348Z 10004KT 10SM SKC 23/01 A3001
Loading
Personal Weather Stations






























Interactive Weather Map
Tropical Storm Tracking
New forecast layout! Learn more

10-Day Weather Forecast

Advertisements
Track Severe Weather on mobile